sensor_id;sensor_type;location;lat;lon;timestamp;pressure;altitude;pressure_sealevel;temperature;humidity
84190;BME280;74321;53.406;8.146;2023-12-14T00:04:41;101123.50;;;3.10;100.00
84190;BME280;74321;53.406;8.146;2023-12-14T00:09:43;101110.34;;;2.95;100.00
84190;BME280;74321;53.406;8.146;2023-12-14T00:14:45;101144.50;;;3.07;100.00
84190;BME280;74321;53.406;8.146;2023-12-14T00:19:47;101155.47;;;3.06;100.00
84190;BME280;74321;53.406;8.146;2023-12-14T00:24:49;101126.94;;;2.87;100.00
84190;BME280;74321;53.406;8.146;2023-12-14T00:29:51;101184.09;;;3.05;100.00
84190;BME280;74321;53.406;8.146;2023-12-14T00:34:53;101190.69;;;3.00;100.00
84190;BME280;74321;53.406;8.146;2023-12-14T00:39:55;101205.09;;;3.03;100.00
84190;BME280;74321;53.406;8.146;2023-12-14T00:44:57;101194.44;;;2.86;100.00
84190;BME280;74321;53.406;8.146;2023-12-14T00:49:59;101192.75;;;2.87;100.00
84190;BME280;74321;53.406;8.146;2023-12-14T00:55:01;101136.72;;;2.50;100.00
84190;BME280;74321;53.406;8.146;2023-12-14T01:00:03;101209.69;;;2.89;100.00
84190;BME280;74321;53.406;8.146;2023-12-14T01:05:05;101228.44;;;2.94;100.00
84190;BME280;74321;53.406;8.146;2023-12-14T01:10:08;101218.09;;;2.88;100.00
84190;BME280;74321;53.406;8.146;2023-12-14T01:15:10;101200.69;;;2.72;100.00
84190;BME280;74321;53.406;8.146;2023-12-14T01:20:12;101243.63;;;2.94;100.00
84190;BME280;74321;53.406;8.146;2023-12-14T01:25:15;101246.94;;;2.92;100.00
84190;BME280;74321;53.406;8.146;2023-12-14T01:30:17;101230.13;;;2.70;100.00
84190;BME280;74321;53.406;8.146;2023-12-14T01:35:19;101277.19;;;2.89;100.00
84190;BME280;74321;53.406;8.146;2023-12-14T01:40:21;101279.53;;;2.83;100.00
84190;BME280;74321;53.406;8.146;2023-12-14T01:45:23;101261.50;;;2.73;100.00
84190;BME280;74321;53.406;8.146;2023-12-14T01:50:25;101296.53;;;2.87;100.00
84190;BME280;74321;53.406;8.146;2023-12-14T01:55:27;101308.31;;;2.86;100.00
84190;BME280;74321;53.406;8.146;2023-12-14T02:00:39;101291.72;;;2.70;100.00
84190;BME280;74321;53.406;8.146;2023-12-14T02:05:43;101281.38;;;2.64;100.00
84190;BME280;74321;53.406;8.146;2023-12-14T02:10:45;101301.25;;;2.77;100.00
84190;BME280;74321;53.406;8.146;2023-12-14T02:15:47;101308.91;;;2.79;100.00
84190;BME280;74321;53.406;8.146;2023-12-14T02:20:49;101325.06;;;2.83;100.00
84190;BME280;74321;53.406;8.146;2023-12-14T02:25:51;101308.69;;;2.49;100.00
84190;BME280;74321;53.406;8.146;2023-12-14T02:30:53;101309.88;;;2.36;100.00
84190;BME280;74321;53.406;8.146;2023-12-14T02:35:56;101341.91;;;2.58;100.00
84190;BME280;74321;53.406;8.146;2023-12-14T02:40:58;101355.88;;;2.72;100.00
84190;BME280;74321;53.406;8.146;2023-12-14T02:46:00;101326.81;;;2.61;100.00
84190;BME280;74321;53.406;8.146;2023-12-14T02:51:04;101342.38;;;2.72;100.00
84190;BME280;74321;53.406;8.146;2023-12-14T02:56:08;101301.81;;;2.46;100.00
84190;BME280;74321;53.406;8.146;2023-12-14T03:01:11;101343.31;;;2.74;100.00
84190;BME280;74321;53.406;8.146;2023-12-14T03:06:13;101336.88;;;2.60;100.00
84190;BME280;74321;53.406;8.146;2023-12-14T03:11:24;101329.00;;;2.52;100.00
84190;BME280;74321;53.406;8.146;2023-12-14T03:16:26;101335.13;;;2.57;100.00
84190;BME280;74321;53.406;8.146;2023-12-14T03:21:29;101367.59;;;2.69;100.00
84190;BME280;74321;53.406;8.146;2023-12-14T03:26:31;101362.19;;;2.60;100.00
84190;BME280;74321;53.406;8.146;2023-12-14T03:31:33;101400.81;;;2.78;100.00
84190;BME280;74321;53.406;8.146;2023-12-14T03:36:35;101405.72;;;2.73;100.00
84190;BME280;74321;53.406;8.146;2023-12-14T03:41:37;101398.47;;;2.60;100.00
84190;BME280;74321;53.406;8.146;2023-12-14T03:46:39;101417.22;;;2.65;100.00
84190;BME280;74321;53.406;8.146;2023-12-14T03:51:41;101407.72;;;2.60;100.00
84190;BME280;74321;53.406;8.146;2023-12-14T03:56:43;101353.09;;;2.20;100.00
84190;BME280;74321;53.406;8.146;2023-12-14T04:01:45;101432.91;;;2.57;100.00
84190;BME280;74321;53.406;8.146;2023-12-14T04:06:47;101382.88;;;2.27;100.00
84190;BME280;74321;53.406;8.146;2023-12-14T04:11:49;101449.13;;;2.62;100.00
84190;BME280;74321;53.406;8.146;2023-12-14T04:16:51;101448.75;;;2.52;100.00
84190;BME280;74321;53.406;8.146;2023-12-14T04:21:53;101447.84;;;2.50;100.00
84190;BME280;74321;53.406;8.146;2023-12-14T04:26:55;101461.41;;;2.52;100.00
84190;BME280;74321;53.406;8.146;2023-12-14T04:31:57;101449.78;;;2.35;100.00
84190;BME280;74321;53.406;8.146;2023-12-14T04:36:59;101483.31;;;2.52;100.00
84190;BME280;74321;53.406;8.146;2023-12-14T04:42:01;101496.03;;;2.53;100.00
84190;BME280;74321;53.406;8.146;2023-12-14T04:47:03;101471.78;;;2.38;100.00
84190;BME280;74321;53.406;8.146;2023-12-14T04:52:05;101497.44;;;2.47;100.00
84190;BME280;74321;53.406;8.146;2023-12-14T04:57:08;101496.47;;;2.43;100.00
84190;BME280;74321;53.406;8.146;2023-12-14T05:02:10;101505.72;;;2.43;100.00
84190;BME280;74321;53.406;8.146;2023-12-14T05:07:12;101495.19;;;2.32;100.00
84190;BME280;74321;53.406;8.146;2023-12-14T05:12:14;101528.59;;;2.46;100.00
84190;BME280;74321;53.406;8.146;2023-12-14T05:17:16;101534.50;;;2.46;100.00
84190;BME280;74321;53.406;8.146;2023-12-14T05:22:19;101447.28;;;1.95;100.00
84190;BME280;74321;53.406;8.146;2023-12-14T05:27:20;101502.19;;;2.18;100.00
84190;BME280;74321;53.406;8.146;2023-12-14T05:32:25;101524.84;;;2.36;100.00
84190;BME280;74321;53.406;8.146;2023-12-14T05:37:27;101522.78;;;2.28;100.00
84190;BME280;74321;53.406;8.146;2023-12-14T05:42:29;101534.91;;;2.35;100.00
84190;BME280;74321;53.406;8.146;2023-12-14T05:47:32;101555.38;;;2.41;100.00
84190;BME280;74321;53.406;8.146;2023-12-14T05:52:35;101556.91;;;2.37;100.00
84190;BME280;74321;53.406;8.146;2023-12-14T05:57:38;101558.31;;;2.31;100.00
84190;BME280;74321;53.406;8.146;2023-12-14T06:02:40;101565.31;;;2.36;100.00
84190;BME280;74321;53.406;8.146;2023-12-14T06:07:42;101590.31;;;2.49;100.00
84190;BME280;74321;53.406;8.146;2023-12-14T06:12:45;101596.22;;;2.50;100.00
84190;BME280;74321;53.406;8.146;2023-12-14T06:17:47;101601.28;;;2.50;100.00
84190;BME280;74321;53.406;8.146;2023-12-14T06:22:49;101603.06;;;2.52;100.00
84190;BME280;74321;53.406;8.146;2023-12-14T06:27:51;101624.22;;;2.54;100.00
84190;BME280;74321;53.406;8.146;2023-12-14T06:32:53;101638.75;;;2.59;100.00
84190;BME280;74321;53.406;8.146;2023-12-14T06:37:55;101628.09;;;2.46;100.00
84190;BME280;74321;53.406;8.146;2023-12-14T06:42:57;101663.31;;;2.61;100.00
84190;BME280;74321;53.406;8.146;2023-12-14T06:47:59;101664.88;;;2.58;100.00
84190;BME280;74321;53.406;8.146;2023-12-14T06:53:01;101659.59;;;2.53;100.00
84190;BME280;74321;53.406;8.146;2023-12-14T06:58:03;101679.28;;;2.60;100.00
84190;BME280;74321;53.406;8.146;2023-12-14T07:03:05;101668.97;;;2.56;100.00
84190;BME280;74321;53.406;8.146;2023-12-14T07:08:08;101681.88;;;2.62;100.00
84190;BME280;74321;53.406;8.146;2023-12-14T07:13:09;101701.31;;;2.63;100.00
84190;BME280;74321;53.406;8.146;2023-12-14T07:18:11;101700.41;;;2.61;100.00
84190;BME280;74321;53.406;8.146;2023-12-14T07:23:13;101721.94;;;2.72;100.00
84190;BME280;74321;53.406;8.146;2023-12-14T07:28:16;101729.38;;;2.67;100.00
84190;BME280;74321;53.406;8.146;2023-12-14T07:33:17;101731.09;;;2.68;100.00
84190;BME280;74321;53.406;8.146;2023-12-14T07:38:20;101700.59;;;2.46;100.00
84190;BME280;74321;53.406;8.146;2023-12-14T07:43:22;101737.53;;;2.62;100.00
84190;BME280;74321;53.406;8.146;2023-12-14T07:48:24;101743.53;;;2.64;100.00
84190;BME280;74321;53.406;8.146;2023-12-14T07:53:26;101718.38;;;2.47;100.00
84190;BME280;74321;53.406;8.146;2023-12-14T07:58:29;101728.13;;;2.58;100.00
84190;BME280;74321;53.406;8.146;2023-12-14T08:03:31;101765.19;;;2.76;100.00
84190;BME280;74321;53.406;8.146;2023-12-14T08:08:33;101743.47;;;2.62;100.00
84190;BME280;74321;53.406;8.146;2023-12-14T08:13:35;101757.47;;;2.73;100.00
84190;BME280;74321;53.406;8.146;2023-12-14T08:18:39;101777.91;;;2.78;100.00
84190;BME280;74321;53.406;8.146;2023-12-14T08:23:42;101784.16;;;2.86;100.00
84190;BME280;74321;53.406;8.146;2023-12-14T08:28:44;101795.34;;;2.91;100.00
84190;BME280;74321;53.406;8.146;2023-12-14T08:33:46;101795.19;;;2.88;100.00
84190;BME280;74321;53.406;8.146;2023-12-14T08:38:51;101793.63;;;2.90;100.00
84190;BME280;74321;53.406;8.146;2023-12-14T08:43:53;101812.72;;;3.03;100.00
84190;BME280;74321;53.406;8.146;2023-12-14T08:48:57;101820.59;;;3.09;100.00
84190;BME280;74321;53.406;8.146;2023-12-14T08:53:59;101810.47;;;3.09;100.00
84190;BME280;74321;53.406;8.146;2023-12-14T08:59:01;101831.53;;;3.08;100.00
84190;BME280;74321;53.406;8.146;2023-12-14T09:04:05;101825.44;;;3.04;100.00
84190;BME280;74321;53.406;8.146;2023-12-14T09:09:08;101869.00;;;3.36;100.00
84190;BME280;74321;53.406;8.146;2023-12-14T09:14:10;101881.94;;;3.42;100.00
84190;BME280;74321;53.406;8.146;2023-12-14T09:19:12;101877.69;;;3.22;100.00
84190;BME280;74321;53.406;8.146;2023-12-14T09:24:14;101894.69;;;3.44;100.00
84190;BME280;74321;53.406;8.146;2023-12-14T09:29:16;101883.41;;;3.37;100.00
84190;BME280;74321;53.406;8.146;2023-12-14T09:34:18;101908.00;;;3.59;100.00
84190;BME280;74321;53.406;8.146;2023-12-14T09:39:20;101883.47;;;3.38;100.00
84190;BME280;74321;53.406;8.146;2023-12-14T09:44:24;101898.06;;;3.44;100.00
84190;BME280;74321;53.406;8.146;2023-12-14T09:49:26;101922.66;;;3.66;100.00
84190;BME280;74321;53.406;8.146;2023-12-14T09:54:30;101905.84;;;3.68;100.00
84190;BME280;74321;53.406;8.146;2023-12-14T09:59:33;101919.75;;;3.78;100.00
84190;BME280;74321;53.406;8.146;2023-12-14T10:04:35;101929.47;;;3.88;100.00
84190;BME280;74321;53.406;8.146;2023-12-14T10:09:37;101953.25;;;3.90;100.00
84190;BME280;74321;53.406;8.146;2023-12-14T10:14:40;101958.16;;;3.87;100.00
84190;BME280;74321;53.406;8.146;2023-12-14T10:19:43;101959.72;;;4.04;100.00
84190;BME280;74321;53.406;8.146;2023-12-14T10:24:47;101951.88;;;3.98;100.00
84190;BME280;74321;53.406;8.146;2023-12-14T10:29:49;101920.06;;;3.85;100.00
84190;BME280;74321;53.406;8.146;2023-12-14T10:34:52;101924.88;;;3.79;100.00
84190;BME280;74321;53.406;8.146;2023-12-14T10:39:55;101936.34;;;3.90;100.00
84190;BME280;74321;53.406;8.146;2023-12-14T10:44:58;101961.16;;;4.18;100.00
84190;BME280;74321;53.406;8.146;2023-12-14T10:50:19;101958.75;;;4.21;100.00
84190;BME280;74321;53.406;8.146;2023-12-14T11:00:26;101959.84;;;4.49;100.00
84190;BME280;74321;53.406;8.146;2023-12-14T11:05:28;101999.72;;;4.51;100.00
84190;BME280;74321;53.406;8.146;2023-12-14T11:10:54;101995.03;;;4.40;100.00
84190;BME280;74321;53.406;8.146;2023-12-14T11:16:00;101996.13;;;4.46;100.00
84190;BME280;74321;53.406;8.146;2023-12-14T11:21:02;101992.97;;;4.31;100.00
84190;BME280;74321;53.406;8.146;2023-12-14T11:26:06;102001.84;;;4.41;100.00
84190;BME280;74321;53.406;8.146;2023-12-14T11:31:11;101996.38;;;4.53;100.00
84190;BME280;74321;53.406;8.146;2023-12-14T11:36:14;102009.81;;;4.50;100.00
84190;BME280;74321;53.406;8.146;2023-12-14T11:41:16;102000.97;;;4.40;100.00
84190;BME280;74321;53.406;8.146;2023-12-14T11:46:24;102000.50;;;4.30;99.88
84190;BME280;74321;53.406;8.146;2023-12-14T11:51:29;102003.66;;;4.45;100.00
84190;BME280;74321;53.406;8.146;2023-12-14T11:56:34;102015.56;;;4.46;99.54
84190;BME280;74321;53.406;8.146;2023-12-14T12:01:37;101997.63;;;4.85;97.37
84190;BME280;74321;53.406;8.146;2023-12-14T12:06:39;101985.06;;;8.08;77.90
84190;BME280;74321;53.406;8.146;2023-12-14T12:11:41;101970.59;;;6.84;80.12
84190;BME280;74321;53.406;8.146;2023-12-14T12:16:43;101999.63;;;6.10;86.53
84190;BME280;74321;53.406;8.146;2023-12-14T12:21:45;101995.19;;;5.32;89.30
84190;BME280;74321;53.406;8.146;2023-12-14T12:26:47;102022.50;;;5.62;88.00
84190;BME280;74321;53.406;8.146;2023-12-14T12:31:49;101993.16;;;5.46;89.56
84190;BME280;74321;53.406;8.146;2023-12-14T12:36:51;102017.44;;;5.38;91.50
84190;BME280;74321;53.406;8.146;2023-12-14T12:41:54;101997.94;;;5.86;89.39
84190;BME280;74321;53.406;8.146;2023-12-14T12:46:56;102014.94;;;5.40;89.40
84190;BME280;74321;53.406;8.146;2023-12-14T12:52:11;102030.19;;;4.95;90.86
84190;BME280;74321;53.406;8.146;2023-12-14T12:57:13;102012.63;;;4.78;95.05
84190;BME280;74321;53.406;8.146;2023-12-14T13:02:15;102044.72;;;4.76;95.29
84190;BME280;74321;53.406;8.146;2023-12-14T13:07:18;102050.47;;;4.51;95.34
84190;BME280;74321;53.406;8.146;2023-12-14T13:12:20;102034.75;;;4.39;96.60
84190;BME280;74321;53.406;8.146;2023-12-14T13:17:22;102056.84;;;4.63;100.00
84190;BME280;74321;53.406;8.146;2023-12-14T13:22:25;102043.47;;;4.46;100.00
84190;BME280;74321;53.406;8.146;2023-12-14T13:27:31;102067.81;;;4.41;100.00
84190;BME280;74321;53.406;8.146;2023-12-14T13:32:34;102053.06;;;4.32;100.00
84190;BME280;74321;53.406;8.146;2023-12-14T13:37:36;102075.97;;;4.34;100.00
84190;BME280;74321;53.406;8.146;2023-12-14T13:42:38;102086.06;;;4.32;100.00
84190;BME280;74321;53.406;8.146;2023-12-14T13:47:55;102072.19;;;4.05;100.00
84190;BME280;74321;53.406;8.146;2023-12-14T13:52:57;102112.91;;;4.27;100.00
84190;BME280;74321;53.406;8.146;2023-12-14T13:58:26;102129.25;;;4.34;100.00
84190;BME280;74321;53.406;8.146;2023-12-14T14:03:41;102126.50;;;4.29;100.00
84190;BME280;74321;53.406;8.146;2023-12-14T14:08:46;102122.66;;;4.18;100.00
84190;BME280;74321;53.406;8.146;2023-12-14T14:14:04;102136.31;;;4.21;100.00
84190;BME280;74321;53.406;8.146;2023-12-14T14:19:09;102111.25;;;3.89;100.00
84190;BME280;74321;53.406;8.146;2023-12-14T14:24:12;102128.38;;;3.94;100.00
84190;BME280;74321;53.406;8.146;2023-12-14T14:29:30;102094.22;;;3.67;100.00
84190;BME280;74321;53.406;8.146;2023-12-14T14:34:48;102182.84;;;4.03;100.00
84190;BME280;74321;53.406;8.146;2023-12-14T14:39:54;101967.28;;;2.69;100.00
84190;BME280;74321;53.406;8.146;2023-12-14T14:45:06;101780.63;;;1.53;100.00
84190;BME280;74321;53.406;8.146;2023-12-14T14:50:24;102077.63;;;3.36;100.00
84190;BME280;74321;53.406;8.146;2023-12-14T14:55:31;102157.31;;;3.80;100.00
84190;BME280;74321;53.406;8.146;2023-12-14T15:00:39;102142.22;;;3.64;100.00
84190;BME280;74321;53.406;8.146;2023-12-14T15:05:53;102206.06;;;3.92;100.00
84190;BME280;74321;53.406;8.146;2023-12-14T15:10:58;102216.34;;;3.95;100.00
84190;BME280;74321;53.406;8.146;2023-12-14T15:16:05;102205.31;;;3.76;100.00
84190;BME280;74321;53.406;8.146;2023-12-14T15:21:08;102217.25;;;3.78;100.00
84190;BME280;74321;53.406;8.146;2023-12-14T15:26:12;102240.13;;;3.80;100.00
84190;BME280;74321;53.406;8.146;2023-12-14T15:31:14;102219.72;;;3.59;100.00
84190;BME280;74321;53.406;8.146;2023-12-14T15:36:16;102231.09;;;3.67;100.00
84190;BME280;74321;53.406;8.146;2023-12-14T15:41:18;102241.16;;;3.65;100.00
84190;BME280;74321;53.406;8.146;2023-12-14T15:46:21;102234.94;;;3.59;100.00
84190;BME280;74321;53.406;8.146;2023-12-14T15:51:23;102258.59;;;3.77;100.00
84190;BME280;74321;53.406;8.146;2023-12-14T15:56:37;102261.00;;;3.74;100.00
84190;BME280;74321;53.406;8.146;2023-12-14T16:01:46;102273.00;;;3.60;100.00
84190;BME280;74321;53.406;8.146;2023-12-14T16:06:50;102205.13;;;3.01;100.00
84190;BME280;74321;53.406;8.146;2023-12-14T16:11:53;102263.28;;;3.34;100.00
84190;BME280;74321;53.406;8.146;2023-12-14T16:16:56;102260.56;;;3.13;100.00
84190;BME280;74321;53.406;8.146;2023-12-14T16:21:58;102285.47;;;3.22;100.00
84190;BME280;74321;53.406;8.146;2023-12-14T16:27:00;102288.53;;;3.15;100.00
84190;BME280;74321;53.406;8.146;2023-12-14T16:32:04;102256.81;;;2.72;100.00
84190;BME280;74321;53.406;8.146;2023-12-14T16:37:06;102305.88;;;2.74;100.00
84190;BME280;74321;53.406;8.146;2023-12-14T16:42:08;102318.63;;;2.45;100.00
84190;BME280;74321;53.406;8.146;2023-12-14T16:47:10;102308.78;;;2.18;100.00
84190;BME280;74321;53.406;8.146;2023-12-14T16:52:14;102307.91;;;2.18;100.00
84190;BME280;74321;53.406;8.146;2023-12-14T16:57:20;102329.97;;;2.51;100.00
84190;BME280;74321;53.406;8.146;2023-12-14T17:02:23;102331.31;;;2.61;100.00
84190;BME280;74321;53.406;8.146;2023-12-14T17:07:25;102312.97;;;2.49;100.00
84190;BME280;74321;53.406;8.146;2023-12-14T17:12:27;102333.03;;;2.46;100.00
84190;BME280;74321;53.406;8.146;2023-12-14T17:17:29;102349.16;;;2.48;100.00
84190;BME280;74321;53.406;8.146;2023-12-14T17:22:36;102367.53;;;2.60;100.00
84190;BME280;74321;53.406;8.146;2023-12-14T17:27:39;102360.81;;;2.61;100.00
84190;BME280;74321;53.406;8.146;2023-12-14T17:32:41;102377.81;;;2.63;100.00
84190;BME280;74321;53.406;8.146;2023-12-14T17:37:43;102390.94;;;2.72;100.00
84190;BME280;74321;53.406;8.146;2023-12-14T17:42:45;102394.47;;;2.74;100.00
84190;BME280;74321;53.406;8.146;2023-12-14T17:47:47;102394.13;;;2.68;100.00
84190;BME280;74321;53.406;8.146;2023-12-14T17:52:50;102374.44;;;2.48;100.00
84190;BME280;74321;53.406;8.146;2023-12-14T17:57:52;102403.72;;;2.43;100.00
84190;BME280;74321;53.406;8.146;2023-12-14T18:02:54;102409.63;;;2.43;100.00
84190;BME280;74321;53.406;8.146;2023-12-14T18:07:56;102413.97;;;2.46;100.00
84190;BME280;74321;53.406;8.146;2023-12-14T18:12:58;102389.44;;;2.29;100.00
84190;BME280;74321;53.406;8.146;2023-12-14T18:18:05;102420.00;;;2.48;100.00
84190;BME280;74321;53.406;8.146;2023-12-14T18:23:07;102388.91;;;2.34;100.00
84190;BME280;74321;53.406;8.146;2023-12-14T18:28:10;102424.09;;;2.46;100.00
84190;BME280;74321;53.406;8.146;2023-12-14T18:33:12;102404.66;;;2.45;100.00
84190;BME280;74321;53.406;8.146;2023-12-14T18:38:15;102411.22;;;2.41;100.00
84190;BME280;74321;53.406;8.146;2023-12-14T18:43:17;102434.50;;;2.50;100.00
84190;BME280;74321;53.406;8.146;2023-12-14T18:48:19;102409.06;;;2.33;100.00
84190;BME280;74321;53.406;8.146;2023-12-14T18:53:22;102453.06;;;2.51;100.00
84190;BME280;74321;53.406;8.146;2023-12-14T18:58:24;102449.41;;;2.46;100.00
84190;BME280;74321;53.406;8.146;2023-12-14T19:03:27;102426.56;;;2.30;100.00
84190;BME280;74321;53.406;8.146;2023-12-14T19:08:29;102455.53;;;2.49;100.00
84190;BME280;74321;53.406;8.146;2023-12-14T19:13:31;102464.41;;;2.58;100.00
84190;BME280;74321;53.406;8.146;2023-12-14T19:18:34;102467.44;;;2.67;100.00
84190;BME280;74321;53.406;8.146;2023-12-14T19:23:36;102465.72;;;2.66;100.00
84190;BME280;74321;53.406;8.146;2023-12-14T19:28:38;102480.53;;;2.74;100.00
84190;BME280;74321;53.406;8.146;2023-12-14T19:33:40;102481.19;;;2.72;100.00
84190;BME280;74321;53.406;8.146;2023-12-14T19:38:46;102457.75;;;2.60;100.00
84190;BME280;74321;53.406;8.146;2023-12-14T19:43:54;102479.13;;;2.65;100.00
84190;BME280;74321;53.406;8.146;2023-12-14T19:48:56;102430.97;;;2.17;100.00
84190;BME280;74321;53.406;8.146;2023-12-14T19:53:58;102517.13;;;2.50;100.00
84190;BME280;74321;53.406;8.146;2023-12-14T19:59:01;102504.97;;;2.30;100.00
84190;BME280;74321;53.406;8.146;2023-12-14T20:04:03;102512.78;;;2.33;100.00
84190;BME280;74321;53.406;8.146;2023-12-14T20:09:10;102513.19;;;2.40;100.00
84190;BME280;74321;53.406;8.146;2023-12-14T20:14:12;102528.28;;;2.53;100.00
84190;BME280;74321;53.406;8.146;2023-12-14T20:19:14;102535.34;;;2.59;100.00
84190;BME280;74321;53.406;8.146;2023-12-14T20:24:16;102489.88;;;2.46;100.00
84190;BME280;74321;53.406;8.146;2023-12-14T20:29:18;102525.03;;;2.56;100.00
84190;BME280;74321;53.406;8.146;2023-12-14T20:34:21;102541.88;;;2.70;100.00
84190;BME280;74321;53.406;8.146;2023-12-14T20:39:25;102554.53;;;2.70;100.00
84190;BME280;74321;53.406;8.146;2023-12-14T20:44:34;102567.53;;;2.62;100.00
84190;BME280;74321;53.406;8.146;2023-12-14T20:49:36;102541.56;;;2.49;100.00
84190;BME280;74321;53.406;8.146;2023-12-14T20:54:38;102540.47;;;2.46;100.00
84190;BME280;74321;53.406;8.146;2023-12-14T20:59:40;102564.94;;;2.60;100.00
84190;BME280;74321;53.406;8.146;2023-12-14T21:04:42;102554.00;;;2.61;100.00
